sensor_id;sensor_type;location;lat;lon;timestamp;pressure;altitude;pressure_sealevel;temperature
74536;BMP180;63013;51.104;-115.370;2023-07-28T00:00:59;87378.60;;;21.60
74536;BMP180;63013;51.104;-115.370;2023-07-28T00:03:27;87382.40;;;21.64
74536;BMP180;63013;51.104;-115.370;2023-07-28T00:05:54;87382.60;;;21.62
74536;BMP180;63013;51.104;-115.370;2023-07-28T00:08:21;87385.60;;;21.60
74536;BMP180;63013;51.104;-115.370;2023-07-28T00:10:48;87385.80;;;21.64
74536;BMP180;63013;51.104;-115.370;2023-07-28T00:13:14;87391.00;;;21.68
74536;BMP180;63013;51.104;-115.370;2023-07-28T00:15:42;87396.00;;;21.66
74536;BMP180;63013;51.104;-115.370;2023-07-28T00:18:09;87396.40;;;21.66
74536;BMP180;63013;51.104;-115.370;2023-07-28T00:20:36;87406.40;;;21.70
74536;BMP180;63013;51.104;-115.370;2023-07-28T00:23:03;87404.80;;;21.70
74536;BMP180;63013;51.104;-115.370;2023-07-28T00:25:30;87405.60;;;21.68
74536;BMP180;63013;51.104;-115.370;2023-07-28T00:27:57;87408.00;;;21.68
74536;BMP180;63013;51.104;-115.370;2023-07-28T00:30:24;87407.20;;;21.62
74536;BMP180;63013;51.104;-115.370;2023-07-28T00:32:52;87399.40;;;21.62
74536;BMP180;63013;51.104;-115.370;2023-07-28T00:35:19;87402.20;;;21.60
74536;BMP180;63013;51.104;-115.370;2023-07-28T00:37:46;87408.20;;;21.62
74536;BMP180;63013;51.104;-115.370;2023-07-28T00:40:13;87407.60;;;21.62
74536;BMP180;63013;51.104;-115.370;2023-07-28T00:42:41;87410.20;;;21.66
74536;BMP180;63013;51.104;-115.370;2023-07-28T00:45:08;87420.60;;;21.70
74536;BMP180;63013;51.104;-115.370;2023-07-28T00:47:36;87423.00;;;21.70
74536;BMP180;63013;51.104;-115.370;2023-07-28T00:50:04;87424.20;;;21.70
74536;BMP180;63013;51.104;-115.370;2023-07-28T00:52:32;87433.80;;;21.70
74536;BMP180;63013;51.104;-115.370;2023-07-28T00:55:00;87437.00;;;21.70
74536;BMP180;63013;51.104;-115.370;2023-07-28T00:57:27;87443.00;;;21.70
74536;BMP180;63013;51.104;-115.370;2023-07-28T00:59:55;87441.60;;;21.70
74536;BMP180;63013;51.104;-115.370;2023-07-28T01:02:22;87447.80;;;21.70
74536;BMP180;63013;51.104;-115.370;2023-07-28T01:04:50;87446.60;;;21.70
74536;BMP180;63013;51.104;-115.370;2023-07-28T01:10:30;87455.60;;;21.70
74536;BMP180;63013;51.104;-115.370;2023-07-28T01:12:59;87463.00;;;21.70
74536;BMP180;63013;51.104;-115.370;2023-07-28T01:15:26;87467.20;;;21.70
74536;BMP180;63013;51.104;-115.370;2023-07-28T01:17:53;87466.80;;;21.70
74536;BMP180;63013;51.104;-115.370;2023-07-28T01:20:23;87471.80;;;21.70
74536;BMP180;63013;51.104;-115.370;2023-07-28T01:28:24;87496.40;;;21.70
74536;BMP180;63013;51.104;-115.370;2023-07-28T01:31:11;87497.60;;;21.70
74536;BMP180;63013;51.104;-115.370;2023-07-28T01:33:39;87500.40;;;21.70
74536;BMP180;63013;51.104;-115.370;2023-07-28T01:36:05;87500.60;;;21.68
74536;BMP180;63013;51.104;-115.370;2023-07-28T01:38:33;87496.80;;;21.70
74536;BMP180;63013;51.104;-115.370;2023-07-28T01:41:11;87497.00;;;21.68
74536;BMP180;63013;51.104;-115.370;2023-07-28T01:43:42;87500.60;;;21.68
74536;BMP180;63013;51.104;-115.370;2023-07-28T01:46:09;87504.20;;;21.70
74536;BMP180;63013;51.104;-115.370;2023-07-28T01:48:37;87505.00;;;21.70
74536;BMP180;63013;51.104;-115.370;2023-07-28T01:51:04;87514.80;;;21.70
74536;BMP180;63013;51.104;-115.370;2023-07-28T01:53:31;87521.80;;;21.68
74536;BMP180;63013;51.104;-115.370;2023-07-28T01:55:58;87526.80;;;21.70
74536;BMP180;63013;51.104;-115.370;2023-07-28T01:58:27;87533.80;;;21.68
74536;BMP180;63013;51.104;-115.370;2023-07-28T02:00:54;87539.20;;;21.62
74536;BMP180;63013;51.104;-115.370;2023-07-28T02:03:21;87541.40;;;21.62
74536;BMP180;63013;51.104;-115.370;2023-07-28T02:05:50;87549.20;;;21.60
74536;BMP180;63013;51.104;-115.370;2023-07-28T02:08:17;87555.80;;;21.60
74536;BMP180;63013;51.104;-115.370;2023-07-28T02:10:45;87564.60;;;21.60
74536;BMP180;63013;51.104;-115.370;2023-07-28T02:13:12;87567.20;;;21.60
74536;BMP180;63013;51.104;-115.370;2023-07-28T02:15:39;87567.60;;;21.60
74536;BMP180;63013;51.104;-115.370;2023-07-28T02:18:06;87575.20;;;21.60
74536;BMP180;63013;51.104;-115.370;2023-07-28T02:20:33;87583.80;;;21.60
74536;BMP180;63013;51.104;-115.370;2023-07-28T02:23:02;87590.00;;;21.60
74536;BMP180;63013;51.104;-115.370;2023-07-28T02:25:30;87591.20;;;21.60
74536;BMP180;63013;51.104;-115.370;2023-07-28T02:27:57;87591.00;;;21.60
74536;BMP180;63013;51.104;-115.370;2023-07-28T02:30:25;87596.40;;;21.60
74536;BMP180;63013;51.104;-115.370;2023-07-28T02:32:51;87600.00;;;21.60
74536;BMP180;63013;51.104;-115.370;2023-07-28T02:35:18;87605.60;;;21.62
74536;BMP180;63013;51.104;-115.370;2023-07-28T02:37:45;87610.40;;;21.60
74536;BMP180;63013;51.104;-115.370;2023-07-28T02:40:12;87619.60;;;21.60
74536;BMP180;63013;51.104;-115.370;2023-07-28T02:42:39;87625.00;;;21.60
74536;BMP180;63013;51.104;-115.370;2023-07-28T02:45:07;87630.40;;;21.60
74536;BMP180;63013;51.104;-115.370;2023-07-28T02:47:36;87633.00;;;21.60
74536;BMP180;63013;51.104;-115.370;2023-07-28T02:50:03;87636.40;;;21.60
74536;BMP180;63013;51.104;-115.370;2023-07-28T02:52:30;87645.20;;;21.60
74536;BMP180;63013;51.104;-115.370;2023-07-28T02:54:58;87648.80;;;21.60
74536;BMP180;63013;51.104;-115.370;2023-07-28T02:57:25;87647.00;;;21.60
74536;BMP180;63013;51.104;-115.370;2023-07-28T02:59:52;87647.40;;;21.60
74536;BMP180;63013;51.104;-115.370;2023-07-28T03:02:20;87647.00;;;21.60
74536;BMP180;63013;51.104;-115.370;2023-07-28T03:04:46;87654.60;;;21.60
74536;BMP180;63013;51.104;-115.370;2023-07-28T03:07:13;87661.40;;;21.60
74536;BMP180;63013;51.104;-115.370;2023-07-28T03:09:40;87660.60;;;21.60
74536;BMP180;63013;51.104;-115.370;2023-07-28T03:12:08;87666.40;;;21.60
74536;BMP180;63013;51.104;-115.370;2023-07-28T03:14:35;87670.20;;;21.60
74536;BMP180;63013;51.104;-115.370;2023-07-28T03:17:03;87673.80;;;21.60
74536;BMP180;63013;51.104;-115.370;2023-07-28T03:19:30;87680.40;;;21.60
74536;BMP180;63013;51.104;-115.370;2023-07-28T03:21:57;87673.40;;;21.60
74536;BMP180;63013;51.104;-115.370;2023-07-28T03:24:24;87667.20;;;21.60
74536;BMP180;63013;51.104;-115.370;2023-07-28T03:26:51;87665.40;;;21.60
74536;BMP180;63013;51.104;-115.370;2023-07-28T03:29:18;87673.80;;;21.60
74536;BMP180;63013;51.104;-115.370;2023-07-28T03:31:46;87677.80;;;21.60
74536;BMP180;63013;51.104;-115.370;2023-07-28T03:34:13;87679.60;;;21.60
74536;BMP180;63013;51.104;-115.370;2023-07-28T03:36:40;87682.60;;;21.60
74536;BMP180;63013;51.104;-115.370;2023-07-28T03:39:07;87682.80;;;21.60
74536;BMP180;63013;51.104;-115.370;2023-07-28T03:41:34;87684.80;;;21.60
74536;BMP180;63013;51.104;-115.370;2023-07-28T03:44:02;87691.00;;;21.60
74536;BMP180;63013;51.104;-115.370;2023-07-28T03:46:28;87693.00;;;21.60
74536;BMP180;63013;51.104;-115.370;2023-07-28T03:48:55;87690.00;;;21.60
74536;BMP180;63013;51.104;-115.370;2023-07-28T03:51:24;87693.00;;;21.60
74536;BMP180;63013;51.104;-115.370;2023-07-28T03:53:51;87692.40;;;21.60
74536;BMP180;63013;51.104;-115.370;2023-07-28T03:56:18;87700.60;;;21.60
74536;BMP180;63013;51.104;-115.370;2023-07-28T03:58:45;87701.00;;;21.60
74536;BMP180;63013;51.104;-115.370;2023-07-28T04:01:12;87709.20;;;21.60
74536;BMP180;63013;51.104;-115.370;2023-07-28T04:03:40;87711.80;;;21.58
74536;BMP180;63013;51.104;-115.370;2023-07-28T04:06:13;87714.80;;;21.54
74536;BMP180;63013;51.104;-115.370;2023-07-28T04:08:40;87723.60;;;21.58
74536;BMP180;63013;51.104;-115.370;2023-07-28T04:11:08;87727.40;;;21.50
74536;BMP180;63013;51.104;-115.370;2023-07-28T04:13:35;87732.00;;;21.52
74536;BMP180;63013;51.104;-115.370;2023-07-28T04:16:03;87736.60;;;21.52
74536;BMP180;63013;51.104;-115.370;2023-07-28T04:18:30;87739.00;;;21.60
74536;BMP180;63013;51.104;-115.370;2023-07-28T04:21:00;87743.40;;;21.60
74536;BMP180;63013;51.104;-115.370;2023-07-28T04:23:28;87744.20;;;21.60
74536;BMP180;63013;51.104;-115.370;2023-07-28T04:25:55;87744.60;;;21.60
74536;BMP180;63013;51.104;-115.370;2023-07-28T04:28:24;87747.20;;;21.60
74536;BMP180;63013;51.104;-115.370;2023-07-28T04:30:51;87753.80;;;21.60
74536;BMP180;63013;51.104;-115.370;2023-07-28T04:33:18;87769.60;;;21.60
74536;BMP180;63013;51.104;-115.370;2023-07-28T04:35:45;87783.40;;;21.60
74536;BMP180;63013;51.104;-115.370;2023-07-28T04:38:12;87792.00;;;21.60
74536;BMP180;63013;51.104;-115.370;2023-07-28T04:40:39;87804.60;;;21.60
74536;BMP180;63013;51.104;-115.370;2023-07-28T04:43:06;87811.60;;;21.60
74536;BMP180;63013;51.104;-115.370;2023-07-28T04:45:32;87817.80;;;21.60
74536;BMP180;63013;51.104;-115.370;2023-07-28T04:47:59;87825.00;;;21.60
74536;BMP180;63013;51.104;-115.370;2023-07-28T04:50:26;87815.20;;;21.60
74536;BMP180;63013;51.104;-115.370;2023-07-28T04:52:53;87805.60;;;21.60
74536;BMP180;63013;51.104;-115.370;2023-07-28T04:55:21;87804.40;;;21.60
74536;BMP180;63013;51.104;-115.370;2023-07-28T04:57:47;87808.20;;;21.60
74536;BMP180;63013;51.104;-115.370;2023-07-28T05:00:15;87806.40;;;21.60
74536;BMP180;63013;51.104;-115.370;2023-07-28T05:02:41;87801.80;;;21.60
74536;BMP180;63013;51.104;-115.370;2023-07-28T05:05:08;87796.00;;;21.58
74536;BMP180;63013;51.104;-115.370;2023-07-28T05:07:35;87797.00;;;21.60
74536;BMP180;63013;51.104;-115.370;2023-07-28T05:10:02;87794.40;;;21.60
74536;BMP180;63013;51.104;-115.370;2023-07-28T05:12:29;87790.20;;;21.60
74536;BMP180;63013;51.104;-115.370;2023-07-28T05:14:56;87780.60;;;21.60
74536;BMP180;63013;51.104;-115.370;2023-07-28T05:17:24;87782.60;;;21.60
74536;BMP180;63013;51.104;-115.370;2023-07-28T05:19:51;87781.20;;;21.60
74536;BMP180;63013;51.104;-115.370;2023-07-28T05:22:18;87780.60;;;21.60
74536;BMP180;63013;51.104;-115.370;2023-07-28T05:24:46;87780.00;;;21.56
74536;BMP180;63013;51.104;-115.370;2023-07-28T05:27:13;87782.80;;;21.58
74536;BMP180;63013;51.104;-115.370;2023-07-28T05:29:40;87782.20;;;21.58
74536;BMP180;63013;51.104;-115.370;2023-07-28T05:32:08;87786.40;;;21.50
74536;BMP180;63013;51.104;-115.370;2023-07-28T05:34:35;87784.80;;;21.50
74536;BMP180;63013;51.104;-115.370;2023-07-28T05:37:02;87783.80;;;21.50
74536;BMP180;63013;51.104;-115.370;2023-07-28T05:39:29;87787.40;;;21.50
74536;BMP180;63013;51.104;-115.370;2023-07-28T05:41:56;87788.00;;;21.50
74536;BMP180;63013;51.104;-115.370;2023-07-28T05:44:24;87784.20;;;21.50
74536;BMP180;63013;51.104;-115.370;2023-07-28T05:46:51;87782.60;;;21.50
74536;BMP180;63013;51.104;-115.370;2023-07-28T05:49:18;87780.00;;;21.46
74536;BMP180;63013;51.104;-115.370;2023-07-28T05:51:45;87781.00;;;21.48
74536;BMP180;63013;51.104;-115.370;2023-07-28T05:54:15;87778.20;;;21.44
74536;BMP180;63013;51.104;-115.370;2023-07-28T05:56:43;87782.60;;;21.42
74536;BMP180;63013;51.104;-115.370;2023-07-28T05:59:09;87779.60;;;21.40
74536;BMP180;63013;51.104;-115.370;2023-07-28T06:01:36;87777.60;;;21.40
74536;BMP180;63013;51.104;-115.370;2023-07-28T06:04:04;87779.80;;;21.40
74536;BMP180;63013;51.104;-115.370;2023-07-28T06:06:30;87781.20;;;21.40
74536;BMP180;63013;51.104;-115.370;2023-07-28T06:08:58;87782.60;;;21.40
74536;BMP180;63013;51.104;-115.370;2023-07-28T06:11:25;87780.80;;;21.40
74536;BMP180;63013;51.104;-115.370;2023-07-28T06:13:53;87776.60;;;21.40
74536;BMP180;63013;51.104;-115.370;2023-07-28T06:16:20;87772.80;;;21.30
74536;BMP180;63013;51.104;-115.370;2023-07-28T06:18:47;87775.60;;;21.30
74536;BMP180;63013;51.104;-115.370;2023-07-28T06:21:14;87775.60;;;21.30
74536;BMP180;63013;51.104;-115.370;2023-07-28T06:23:41;87776.40;;;21.30
74536;BMP180;63013;51.104;-115.370;2023-07-28T06:26:08;87771.00;;;21.30
74536;BMP180;63013;51.104;-115.370;2023-07-28T06:28:35;87776.00;;;21.30
74536;BMP180;63013;51.104;-115.370;2023-07-28T06:31:04;87777.40;;;21.30
74536;BMP180;63013;51.104;-115.370;2023-07-28T06:33:30;87778.40;;;21.30
74536;BMP180;63013;51.104;-115.370;2023-07-28T06:35:57;87775.20;;;21.30
74536;BMP180;63013;51.104;-115.370;2023-07-28T06:38:25;87773.00;;;21.28
74536;BMP180;63013;51.104;-115.370;2023-07-28T06:40:52;87773.00;;;21.30
74536;BMP180;63013;51.104;-115.370;2023-07-28T06:43:19;87775.80;;;21.20
74536;BMP180;63013;51.104;-115.370;2023-07-28T06:45:46;87776.40;;;21.20
74536;BMP180;63013;51.104;-115.370;2023-07-28T06:48:13;87779.20;;;21.20
74536;BMP180;63013;51.104;-115.370;2023-07-28T06:50:41;87774.40;;;21.20
74536;BMP180;63013;51.104;-115.370;2023-07-28T06:53:08;87779.40;;;21.20
74536;BMP180;63013;51.104;-115.370;2023-07-28T06:55:35;87777.20;;;21.20
74536;BMP180;63013;51.104;-115.370;2023-07-28T06:58:06;87776.20;;;21.20
74536;BMP180;63013;51.104;-115.370;2023-07-28T07:00:33;87782.20;;;21.20
74536;BMP180;63013;51.104;-115.370;2023-07-28T07:03:01;87779.40;;;21.20
74536;BMP180;63013;51.104;-115.370;2023-07-28T07:05:28;87771.60;;;21.20
74536;BMP180;63013;51.104;-115.370;2023-07-28T07:07:55;87774.40;;;21.20
74536;BMP180;63013;51.104;-115.370;2023-07-28T07:10:22;87771.80;;;21.20
74536;BMP180;63013;51.104;-115.370;2023-07-28T07:12:50;87772.80;;;21.18
74536;BMP180;63013;51.104;-115.370;2023-07-28T07:15:17;87774.20;;;21.10
74536;BMP180;63013;51.104;-115.370;2023-07-28T07:17:44;87775.60;;;21.10
74536;BMP180;63013;51.104;-115.370;2023-07-28T07:20:11;87773.80;;;21.10
74536;BMP180;63013;51.104;-115.370;2023-07-28T07:22:39;87770.00;;;21.10
74536;BMP180;63013;51.104;-115.370;2023-07-28T07:25:06;87767.80;;;21.10
74536;BMP180;63013;51.104;-115.370;2023-07-28T07:27:34;87766.20;;;21.10
74536;BMP180;63013;51.104;-115.370;2023-07-28T07:30:01;87766.20;;;21.10
74536;BMP180;63013;51.104;-115.370;2023-07-28T07:32:28;87762.80;;;21.10
74536;BMP180;63013;51.104;-115.370;2023-07-28T07:34:55;87764.60;;;21.10
74536;BMP180;63013;51.104;-115.370;2023-07-28T07:37:23;87764.40;;;21.10
74536;BMP180;63013;51.104;-115.370;2023-07-28T07:39:50;87766.40;;;21.10
74536;BMP180;63013;51.104;-115.370;2023-07-28T07:42:17;87765.40;;;21.10
74536;BMP180;63013;51.104;-115.370;2023-07-28T07:44:44;87760.40;;;21.10
74536;BMP180;63013;51.104;-115.370;2023-07-28T07:47:15;87763.20;;;21.10
74536;BMP180;63013;51.104;-115.370;2023-07-28T07:49:43;87769.80;;;21.10
74536;BMP180;63013;51.104;-115.370;2023-07-28T07:52:10;87764.00;;;21.10
74536;BMP180;63013;51.104;-115.370;2023-07-28T07:54:38;87762.00;;;21.10
74536;BMP180;63013;51.104;-115.370;2023-07-28T07:57:05;87762.60;;;21.10
74536;BMP180;63013;51.104;-115.370;2023-07-28T07:59:32;87754.80;;;21.10
74536;BMP180;63013;51.104;-115.370;2023-07-28T08:01:59;87756.20;;;21.04
74536;BMP180;63013;51.104;-115.370;2023-07-28T08:04:29;87755.40;;;21.02
74536;BMP180;63013;51.104;-115.370;2023-07-28T08:06:56;87759.20;;;21.02
74536;BMP180;63013;51.104;-115.370;2023-07-28T08:09:24;87760.00;;;21.00
74536;BMP180;63013;51.104;-115.370;2023-07-28T08:11:51;87761.40;;;21.00
74536;BMP180;63013;51.104;-115.370;2023-07-28T08:14:19;87760.20;;;21.00
74536;BMP180;63013;51.104;-115.370;2023-07-28T08:16:46;87760.40;;;21.00
74536;BMP180;63013;51.104;-115.370;2023-07-28T08:19:13;87766.80;;;21.00
74536;BMP180;63013;51.104;-115.370;2023-07-28T08:21:40;87763.80;;;21.00
74536;BMP180;63013;51.104;-115.370;2023-07-28T08:24:08;87763.00;;;21.00
74536;BMP180;63013;51.104;-115.370;2023-07-28T08:26:35;87761.80;;;21.00
74536;BMP180;63013;51.104;-115.370;2023-07-28T08:29:02;87764.80;;;21.00
74536;BMP180;63013;51.104;-115.370;2023-07-28T08:31:29;87762.40;;;21.00
74536;BMP180;63013;51.104;-115.370;2023-07-28T08:33:56;87769.60;;;21.00
74536;BMP180;63013;51.104;-115.370;2023-07-28T08:36:23;87771.20;;;21.00
74536;BMP180;63013;51.104;-115.370;2023-07-28T08:38:51;87769.60;;;21.00
74536;BMP180;63013;51.104;-115.370;2023-07-28T08:41:19;87773.80;;;21.00
74536;BMP180;63013;51.104;-115.370;2023-07-28T08:43:46;87773.20;;;20.94
74536;BMP180;63013;51.104;-115.370;2023-07-28T08:46:14;87774.60;;;20.92
74536;BMP180;63013;51.104;-115.370;2023-07-28T08:48:41;87774.80;;;20.90
74536;BMP180;63013;51.104;-115.370;2023-07-28T08:51:10;87774.20;;;20.90
74536;BMP180;63013;51.104;-115.370;2023-07-28T08:53:39;87773.20;;;20.90
74536;BMP180;63013;51.104;-115.370;2023-07-28T08:56:06;87769.80;;;20.90
74536;BMP180;63013;51.104;-115.370;2023-07-28T08:58:33;87762.40;;;20.90
74536;BMP180;63013;51.104;-115.370;2023-07-28T09:01:01;87759.40;;;20.90
74536;BMP180;63013;51.104;-115.370;2023-07-28T09:03:29;87757.60;;;20.90
74536;BMP180;63013;51.104;-115.370;2023-07-28T09:06:03;87757.20;;;20.90
74536;BMP180;63013;51.104;-115.370;2023-07-28T09:08:33;87753.40;;;20.90
74536;BMP180;63013;51.104;-115.370;2023-07-28T09:11:05;87754.60;;;20.90
74536;BMP180;63013;51.104;-115.370;2023-07-28T09:13:43;87760.00;;;20.90
74536;BMP180;63013;51.104;-115.370;2023-07-28T09:16:20;87757.20;;;20.84
74536;BMP180;63013;51.104;-115.370;2023-07-28T09:18:48;87755.20;;;20.82
74536;BMP180;63013;51.104;-115.370;2023-07-28T09:21:22;87756.80;;;20.80
74536;BMP180;63013;51.104;-115.370;2023-07-28T09:23:50;87758.80;;;20.80
74536;BMP180;63013;51.104;-115.370;2023-07-28T09:26:18;87756.80;;;20.80
74536;BMP180;63013;51.104;-115.370;2023-07-28T09:28:45;87755.00;;;20.80
74536;BMP180;63013;51.104;-115.370;2023-07-28T09:31:13;87752.80;;;20.80
74536;BMP180;63013;51.104;-115.370;2023-07-28T09:33:40;87752.60;;;20.80
74536;BMP180;63013;51.104;-115.370;2023-07-28T09:36:14;87753.60;;;20.80
74536;BMP180;63013;51.104;-115.370;2023-07-28T09:38:50;87753.20;;;20.80
74536;BMP180;63013;51.104;-115.370;2023-07-28T09:41:18;87757.00;;;20.80
74536;BMP180;63013;51.104;-115.370;2023-07-28T09:43:46;87753.80;;;20.80
74536;BMP180;63013;51.104;-115.370;2023-07-28T09:46:19;87753.40;;;20.74
74536;BMP180;63013;51.104;-115.370;2023-07-28T09:48:52;87749.80;;;20.70
74536;BMP180;63013;51.104;-115.370;2023-07-28T09:51:29;87753.60;;;20.70
74536;BMP180;63013;51.104;-115.370;2023-07-28T09:54:34;87751.40;;;20.70
74536;BMP180;63013;51.104;-115.370;2023-07-28T09:57:11;87756.20;;;20.70
74536;BMP180;63013;51.104;-115.370;2023-07-28T09:59:43;87759.20;;;20.70
74536;BMP180;63013;51.104;-115.370;2023-07-28T10:02:13;87757.20;;;20.70
74536;BMP180;63013;51.104;-115.370;2023-07-28T10:04:40;87761.00;;;20.70
74536;BMP180;63013;51.104;-115.370;2023-07-28T10:07:08;87762.20;;;20.70
74536;BMP180;63013;51.104;-115.370;2023-07-28T10:09:37;87761.40;;;20.70
74536;BMP180;63013;51.104;-115.370;2023-07-28T10:12:05;87764.80;;;20.70
74536;BMP180;63013;51.104;-115.370;2023-07-28T10:14:37;87767.40;;;20.70
74536;BMP180;63013;51.104;-115.370;2023-07-28T10:17:15;87765.40;;;20.70
74536;BMP180;63013;51.104;-115.370;2023-07-28T10:19:43;87764.00;;;20.62
74536;BMP180;63013;51.104;-115.370;2023-07-28T10:22:12;87766.80;;;20.60
74536;BMP180;63013;51.104;-115.370;2023-07-28T10:24:52;87762.80;;;20.60
74536;BMP180;63013;51.104;-115.370;2023-07-28T10:30:02;87767.20;;;20.60
74536;BMP180;63013;51.104;-115.370;2023-07-28T10:32:42;87770.20;;;20.60
74536;BMP180;63013;51.104;-115.370;2023-07-28T10:37:44;87768.20;;;20.60
74536;BMP180;63013;51.104;-115.370;2023-07-28T10:40:34;87772.20;;;20.60
74536;BMP180;63013;51.104;-115.370;2023-07-28T10:43:03;87776.00;;;20.56
74536;BMP180;63013;51.104;-115.370;2023-07-28T10:45:33;87772.60;;;20.54
74536;BMP180;63013;51.104;-115.370;2023-07-28T10:48:00;87771.40;;;20.50
74536;BMP180;63013;51.104;-115.370;2023-07-28T10:50:31;87771.80;;;20.50
74536;BMP180;63013;51.104;-115.370;2023-07-28T10:52:59;87770.80;;;20.50
74536;BMP180;63013;51.104;-115.370;2023-07-28T10:55:27;87769.40;;;20.50
74536;BMP180;63013;51.104;-115.370;2023-07-28T10:57:55;87772.80;;;20.50
74536;BMP180;63013;51.104;-115.370;2023-07-28T11:00:24;87770.60;;;20.50
74536;BMP180;63013;51.104;-115.370;2023-07-28T11:02:54;87773.00;;;20.50
74536;BMP180;63013;51.104;-115.370;2023-07-28T11:05:29;87770.40;;;20.50
74536;BMP180;63013;51.104;-115.370;2023-07-28T11:08:00;87769.40;;;20.48
74536;BMP180;63013;51.104;-115.370;2023-07-28T11:10:32;87771.00;;;20.48
74536;BMP180;63013;51.104;-115.370;2023-07-28T11:13:02;87772.60;;;20.40
74536;BMP180;63013;51.104;-115.370;2023-07-28T11:15:29;87772.20;;;20.40
74536;BMP180;63013;51.104;-115.370;2023-07-28T11:17:56;87767.40;;;20.40
74536;BMP180;63013;51.104;-115.370;2023-07-28T11:20:28;87772.60;;;20.40
74536;BMP180;63013;51.104;-115.370;2023-07-28T11:22:58;87773.40;;;20.40
74536;BMP180;63013;51.104;-115.370;2023-07-28T11:25:28;87776.80;;;20.40
74536;BMP180;63013;51.104;-115.370;2023-07-28T11:27:57;87773.40;;;20.40
74536;BMP180;63013;51.104;-115.370;2023-07-28T11:30:24;87772.00;;;20.40
74536;BMP180;63013;51.104;-115.370;2023-07-28T11:32:53;87772.00;;;20.40
74536;BMP180;63013;51.104;-115.370;2023-07-28T11:35:21;87780.80;;;20.40
74536;BMP180;63013;51.104;-115.370;2023-07-28T11:37:52;87783.60;;;20.38
74536;BMP180;63013;51.104;-115.370;2023-07-28T11:40:22;87781.00;;;20.30
74536;BMP180;63013;51.104;-115.370;2023-07-28T11:42:54;87783.80;;;20.30
74536;BMP180;63013;51.104;-115.370;2023-07-28T11:45:23;87781.00;;;20.30
74536;BMP180;63013;51.104;-115.370;2023-07-28T11:48:06;87786.00;;;20.30
74536;BMP180;63013;51.104;-115.370;2023-07-28T11:50:42;87785.80;;;20.30
74536;BMP180;63013;51.104;-115.370;2023-07-28T11:53:10;87788.80;;;20.30
74536;BMP180;63013;51.104;-115.370;2023-07-28T11:55:39;87795.00;;;20.30
74536;BMP180;63013;51.104;-115.370;2023-07-28T11:58:06;87791.80;;;20.30
74536;BMP180;63013;51.104;-115.370;2023-07-28T12:00:39;87792.80;;;20.30
74536;BMP180;63013;51.104;-115.370;2023-07-28T12:03:13;87792.40;;;20.30
74536;BMP180;63013;51.104;-115.370;2023-07-28T12:06:04;87789.20;;;20.28
74536;BMP180;63013;51.104;-115.370;2023-07-28T12:08:39;87786.80;;;20.26
74536;BMP180;63013;51.104;-115.370;2023-07-28T12:11:14;87788.40;;;20.24
74536;BMP180;63013;51.104;-115.370;2023-07-28T12:13:51;87795.80;;;20.22
74536;BMP180;63013;51.104;-115.370;2023-07-28T12:16:41;87793.20;;;20.20
74536;BMP180;63013;51.104;-115.370;2023-07-28T12:19:14;87793.80;;;20.20
74536;BMP180;63013;51.104;-115.370;2023-07-28T12:21:41;87792.40;;;20.20
74536;BMP180;63013;51.104;-115.370;2023-07-28T12:24:09;87789.80;;;20.20
74536;BMP180;63013;51.104;-115.370;2023-07-28T12:26:35;87790.20;;;20.20
74536;BMP180;63013;51.104;-115.370;2023-07-28T12:29:03;87793.60;;;20.20
74536;BMP180;63013;51.104;-115.370;2023-07-28T12:31:30;87796.00;;;20.20
74536;BMP180;63013;51.104;-115.370;2023-07-28T12:33:59;87797.20;;;20.20
74536;BMP180;63013;51.104;-115.370;2023-07-28T12:36:26;87797.40;;;20.20
74536;BMP180;63013;51.104;-115.370;2023-07-28T12:38:54;87799.80;;;20.20
74536;BMP180;63013;51.104;-115.370;2023-07-28T12:41:21;87794.80;;;20.14
74536;BMP180;63013;51.104;-115.370;2023-07-28T12:43:48;87795.40;;;20.10
74536;BMP180;63013;51.104;-115.370;2023-07-28T12:46:15;87797.80;;;20.10
74536;BMP180;63013;51.104;-115.370;2023-07-28T12:48:42;87795.20;;;20.10
74536;BMP180;63013;51.104;-115.370;2023-07-28T12:51:10;87791.80;;;20.10
74536;BMP180;63013;51.104;-115.370;2023-07-28T12:53:37;87796.60;;;20.10
74536;BMP180;63013;51.104;-115.370;2023-07-28T12:56:04;87799.20;;;20.10
74536;BMP180;63013;51.104;-115.370;2023-07-28T12:58:31;87799.00;;;20.10
74536;BMP180;63013;51.104;-115.370;2023-07-28T13:01:00;87798.40;;;20.10
74536;BMP180;63013;51.104;-115.370;2023-07-28T13:03:28;87800.80;;;20.10
74536;BMP180;63013;51.104;-115.370;2023-07-28T13:05:55;87803.80;;;20.10
74536;BMP180;63013;51.104;-115.370;2023-07-28T13:08:22;87807.40;;;20.10
74536;BMP180;63013;51.104;-115.370;2023-07-28T13:10:50;87815.00;;;20.10
74536;BMP180;63013;51.104;-115.370;2023-07-28T13:13:17;87809.80;;;20.04
74536;BMP180;63013;51.104;-115.370;2023-07-28T13:15:43;87815.20;;;20.02
74536;BMP180;63013;51.104;-115.370;2023-07-28T13:18:10;87818.60;;;20.02
74536;BMP180;63013;51.104;-115.370;2023-07-28T13:20:37;87822.20;;;20.00
74536;BMP180;63013;51.104;-115.370;2023-07-28T13:23:04;87820.20;;;20.00
74536;BMP180;63013;51.104;-115.370;2023-07-28T13:25:32;87821.20;;;20.00
74536;BMP180;63013;51.104;-115.370;2023-07-28T13:27:59;87828.80;;;20.00
74536;BMP180;63013;51.104;-115.370;2023-07-28T13:30:26;87825.40;;;20.00
74536;BMP180;63013;51.104;-115.370;2023-07-28T13:32:54;87826.00;;;20.00
74536;BMP180;63013;51.104;-115.370;2023-07-28T13:35:24;87824.40;;;20.00
74536;BMP180;63013;51.104;-115.370;2023-07-28T13:37:51;87826.80;;;20.00
74536;BMP180;63013;51.104;-115.370;2023-07-28T13:40:18;87823.80;;;20.00
74536;BMP180;63013;51.104;-115.370;2023-07-28T13:42:45;87823.20;;;19.98
74536;BMP180;63013;51.104;-115.370;2023-07-28T13:45:12;87828.20;;;19.98
74536;BMP180;63013;51.104;-115.370;2023-07-28T13:47:39;87827.80;;;19.96
74536;BMP180;63013;51.104;-115.370;2023-07-28T13:50:07;87825.60;;;19.92
74536;BMP180;63013;51.104;-115.370;2023-07-28T13:52:34;87827.80;;;19.90